| Date | Time | Temp. (oF) | Dew Point (oF) | Rel. Hum. (%) | Press. (in.) | Wind Dir. | Wind Speed (mph) | Hourly Rainfall (in.) |
|
|---|---|---|---|---|---|---|---|---|---|
| 1 | 12/18 | 00:00 | 28 | 22 | 80 | 29.67 | SSW | 10 | 0.00 |
| 2 | 12/17 | 23:00 | 28 | 23 | 82 | 29.68 | WSW | 3 | 0.00 |
| 3 | 12/17 | 22:00 | 29 | 23 | 81 | 29.67 | WNW | 10 | 0.01 |
| 4 | 12/17 | 21:00 | 28 | 22 | 80 | 29.68 | W | 8 | 0.00 |
| 5 | 12/17 | 20:00 | 29 | 23 | 78 | 29.67 | W | 13 | 0.00 |
| 6 | 12/17 | 19:00 | 31 | 26 | 84 | 29.66 | NNW | 10 | 0.00 |
| 7 | 12/17 | 18:00 | 31 | 27 | 88 | 29.64 | WSW | 12 | 0.00 |
| 8 | 12/17 | 17:00 | 32 | 32 | 100 | 29.63 | WNW | 8 | 0.00 |
| 9 | 12/17 | 16:00 | 32 | 32 | 100 | 29.63 | WNW | 8 | 0.00 |
| 10 | 12/17 | 15:00 | 31 | 31 | 100 | 29.64 | NW | 10 | 0.01 |
| 11 | 12/17 | 14:00 | 33 | 32 | 100 | 29.64 | WNW | 6 | 0.05 |
| 12 | 12/17 | 13:00 | 35 | 35 | 100 | 29.64 | WNW | 9 | 0.08 |
| 13 | 12/17 | 12:00 | 40 | 40 | 100 | 29.65 | W | 13 | 0.07 |
| 14 | 12/17 | 11:00 | 42 | 41 | 100 | 29.66 | WSW | 3 | 0.00 |
| 15 | 12/17 | 10:00 | 43 | 42 | 100 | 29.69 | W | 1 | 0.00 |
| 16 | 12/17 | 09:00 | 43 | 42 | 100 | 29.71 | WNW | 2 | 0.01 |
| 17 | 12/17 | 08:00 | 43 | 42 | 100 | 29.71 | WNW | 5 | 0.02 |
| 18 | 12/17 | 07:00 | 42 | 41 | 100 | 29.72 | NE | 3 | 0.09 |
| 19 | 12/17 | 06:00 | 43 | 42 | 100 | 29.76 | NNW | 3 | 0.19 |
| 20 | 12/17 | 05:00 | 42 | 41 | 100 | 29.78 | NW | 2 | 0.00 |
| 21 | 12/17 | 04:00 | 42 | 40 | 95 | 29.82 | NE | 3 | 0.01 |
| 22 | 12/17 | 03:00 | 42 | 40 | 93 | 29.84 | S | 0 | 0.00 |
| 23 | 12/17 | 02:00 | 42 | 39 | 91 | 29.87 | S | 2 | 0.00 |
| 24 | 12/17 | 01:00 | 44 | 40 | 89 | 29.89 | SSW | 7 | 0.00 |